createdAt,value
2022-09-27T00:01:29.883Z,86.19
2022-09-27T00:03:58.727Z,86.57
2022-09-27T00:06:29.705Z,86.34
2022-09-27T00:08:57.914Z,85.88
2022-09-27T00:11:28.364Z,86.03
2022-09-27T00:13:56.309Z,85.84
2022-09-27T00:16:24.894Z,86.49
2022-09-27T00:18:52.714Z,86.07
2022-09-27T00:21:20.546Z,86.25
2022-09-27T00:23:49.560Z,86.04
2022-09-27T00:26:17.179Z,86.07
2022-09-27T00:28:45.059Z,86.41
2022-09-27T00:31:20.873Z,86.56
2022-09-27T00:33:49.783Z,86.38
2022-09-27T00:36:17.869Z,86.13
2022-09-27T00:38:45.868Z,86.26
2022-09-27T00:41:17.634Z,86.06
2022-09-27T00:43:48.077Z,86.33
2022-09-27T00:46:20.370Z,86.21
2022-09-27T00:48:48.492Z,86.28
2022-09-27T00:51:16.703Z,86.35
2022-09-27T00:53:46.951Z,86.37
2022-09-27T00:56:19.450Z,86.19
2022-09-27T00:58:49.981Z,86.48
2022-09-27T01:01:17.741Z,86.38
2022-09-27T01:03:50.295Z,86.62
2022-09-27T01:06:18.120Z,86.64
2022-09-27T01:08:46.097Z,86.25
2022-09-27T01:11:24.820Z,86.11
2022-09-27T01:14:02.971Z,86.12
2022-09-27T01:16:35.845Z,85.93
2022-09-27T01:19:10.843Z,85.75
2022-09-27T01:21:52.713Z,85.71
2022-09-27T01:24:49.583Z,85.84
2022-09-27T01:27:47.974Z,85.66
2022-09-27T01:30:22.724Z,85.61
2022-09-27T01:32:56.280Z,85.93
2022-09-27T01:35:29.981Z,85.56
2022-09-27T01:38:06.646Z,85.68
2022-09-27T01:40:38.664Z,85.60
2022-09-27T01:43:10.759Z,85.37
2022-09-27T01:45:44.562Z,85.42
2022-09-27T01:48:15.371Z,85.66
2022-09-27T01:50:47.086Z,86.14
2022-09-27T01:53:18.794Z,85.89
2022-09-27T01:55:49.732Z,85.88
2022-09-27T01:58:21.488Z,85.99
2022-09-27T02:00:52.577Z,86.44
2022-09-27T02:03:22.076Z,86.06
2022-09-27T02:05:54.594Z,86.26
2022-09-27T02:08:26.435Z,86.08
2022-09-27T02:10:55.730Z,86.08
2022-09-27T02:13:24.782Z,85.66
2022-09-27T02:15:59.355Z,85.69
2022-09-27T02:18:31.099Z,85.25
2022-09-27T02:21:00.143Z,85.20
2022-09-27T02:23:33.153Z,85.20
2022-09-27T02:26:05.042Z,85.09
2022-09-27T02:28:36.552Z,85.25
2022-09-27T02:31:05.859Z,85.12
2022-09-27T02:33:36.859Z,85.20
2022-09-27T02:36:04.517Z,85.17
2022-09-27T02:38:32.631Z,85.10
2022-09-27T02:41:00.397Z,85.03
2022-09-27T02:43:30.447Z,84.96
2022-09-27T02:46:10.229Z,84.76
2022-09-27T02:48:42.360Z,84.76
2022-09-27T02:51:28.448Z,84.70
2022-09-27T02:54:06.737Z,84.95
2022-09-27T02:56:37.940Z,84.29
2022-09-27T02:59:10.035Z,84.04
2022-09-27T03:01:44.962Z,84.16
2022-09-27T03:04:19.085Z,84.49
2022-09-27T03:06:47.759Z,83.92
2022-09-27T03:09:19.669Z,83.73
2022-09-27T03:11:47.338Z,83.73
2022-09-27T03:14:15.088Z,83.37
2022-09-27T03:16:44.195Z,83.58
2022-09-27T03:19:12.053Z,83.31
2022-09-27T03:21:39.953Z,83.04
2022-09-27T03:24:07.935Z,82.95
2022-09-27T03:26:35.706Z,83.31
2022-09-27T03:29:03.371Z,83.03
2022-09-27T03:31:31.530Z,83.07
2022-09-27T03:34:00.605Z,82.82
2022-09-27T03:36:28.828Z,82.94
2022-09-27T03:38:56.474Z,82.72
2022-09-27T03:41:24.130Z,82.80
2022-09-27T03:43:51.977Z,82.76
2022-09-27T03:46:19.699Z,82.85
2022-09-27T03:48:47.379Z,82.89
2022-09-27T03:51:16.454Z,82.64
2022-09-27T03:53:44.069Z,82.89
2022-09-27T03:56:11.709Z,83.02
2022-09-27T03:58:39.341Z,83.11
2022-09-27T04:01:06.982Z,83.06
2022-09-27T04:03:36.079Z,82.76
2022-09-27T04:06:04.146Z,83.04
2022-09-27T04:08:33.151Z,83.13
2022-09-27T04:11:00.844Z,82.87
2022-09-27T04:13:28.456Z,82.99
2022-09-27T04:15:56.197Z,83.03
2022-09-27T04:18:23.919Z,83.21
2022-09-27T04:20:51.595Z,83.39
2022-09-27T04:23:20.644Z,83.57
2022-09-27T04:25:50.539Z,83.56
2022-09-27T04:28:18.218Z,83.60
2022-09-27T04:30:46.694Z,83.00
2022-09-27T04:33:14.864Z,83.43
2022-09-27T04:36:01.398Z,83.09
2022-09-27T04:38:29.071Z,83.08
2022-09-27T04:40:58.431Z,83.17
2022-09-27T04:43:26.628Z,82.92
2022-09-27T04:45:54.438Z,83.18
2022-09-27T04:48:22.080Z,83.44
2022-09-27T04:50:57.181Z,83.41
2022-09-27T04:53:25.099Z,83.18
2022-09-27T04:55:54.139Z,83.30
2022-09-27T04:58:23.397Z,83.17
2022-09-27T05:00:52.418Z,83.43
2022-09-27T05:03:20.222Z,83.35
2022-09-27T05:05:47.858Z,83.32
2022-09-27T05:08:15.522Z,83.43
2022-09-27T05:10:43.245Z,83.74
2022-09-27T05:13:10.877Z,83.88
2022-09-27T05:15:40.088Z,83.87
2022-09-27T05:18:08.130Z,83.97
2022-09-27T05:20:36.395Z,83.89
2022-09-27T05:23:04.687Z,83.54
2022-09-27T05:25:32.808Z,83.25
2022-09-27T05:28:00.585Z,83.50
2022-09-27T05:30:28.435Z,83.76
2022-09-27T05:32:57.543Z,83.38
2022-09-27T05:35:25.286Z,83.42
2022-09-27T05:37:54.034Z,83.34
2022-09-27T05:40:40.393Z,83.38
2022-09-27T05:43:09.442Z,83.38
2022-09-27T05:45:37.450Z,83.34
2022-09-27T05:48:06.725Z,83.55
2022-09-27T05:50:34.993Z,83.60
2022-09-27T05:53:02.691Z,83.26
2022-09-27T05:55:30.716Z,83.64
2022-09-27T05:57:59.674Z,83.33
2022-09-27T06:00:27.762Z,83.24
2022-09-27T06:02:57.201Z,83.27
2022-09-27T06:05:28.707Z,82.69
2022-09-27T06:08:00.399Z,82.64
2022-09-27T06:10:28.518Z,82.46
2022-09-27T06:13:00.871Z,82.05
2022-09-27T06:15:28.580Z,82.42
2022-09-27T06:17:56.245Z,82.50
2022-09-27T06:20:23.895Z,82.67
2022-09-27T06:22:54.127Z,82.58
2022-09-27T06:25:21.847Z,82.40
2022-09-27T06:27:49.483Z,82.78
2022-09-27T06:30:20.350Z,82.62
2022-09-27T06:32:48.366Z,82.92
2022-09-27T06:35:16.141Z,82.71
2022-09-27T06:37:43.789Z,82.99
2022-09-27T06:40:13.034Z,82.98
2022-09-27T06:42:40.844Z,83.39
2022-09-27T06:45:09.161Z,83.40
2022-09-27T06:47:36.953Z,84.10
2022-09-27T06:50:06.501Z,83.74
2022-09-27T06:52:35.057Z,83.51
2022-09-27T06:55:02.949Z,83.22
2022-09-27T06:57:49.282Z,83.18
2022-09-27T07:00:26.865Z,83.21
2022-09-27T07:03:00.851Z,82.96
2022-09-27T07:05:29.585Z,83.45
2022-09-27T07:07:57.862Z,83.14
2022-09-27T07:10:26.990Z,82.79
2022-09-27T07:12:56.573Z,83.36
2022-09-27T07:15:24.258Z,83.40
2022-09-27T07:17:57.977Z,83.10
2022-09-27T07:20:25.855Z,82.87
2022-09-27T07:22:54.032Z,82.91
2022-09-27T07:25:21.764Z,82.47
2022-09-27T07:27:49.616Z,82.51
2022-09-27T07:30:18.778Z,82.06
2022-09-27T07:32:46.403Z,82.80
2022-09-27T07:35:15.458Z,82.85
2022-09-27T07:37:43.457Z,83.25
2022-09-27T07:40:11.360Z,83.58
2022-09-27T07:42:39.260Z,83.37
2022-09-27T07:45:09.301Z,83.94
2022-09-27T07:47:39.107Z,83.94
2022-09-27T07:50:07.293Z,84.22
2022-09-27T07:52:40.621Z,84.03
2022-09-27T07:55:09.433Z,83.90
2022-09-27T07:57:37.510Z,84.33
2022-09-27T08:00:06.534Z,83.76
2022-09-27T08:02:34.284Z,83.75
2022-09-27T08:05:03.880Z,83.18
2022-09-27T08:07:32.936Z,83.19
2022-09-27T08:10:00.833Z,83.96
2022-09-27T08:12:28.515Z,83.45
2022-09-27T08:14:58.532Z,83.29
2022-09-27T08:17:26.274Z,83.07
2022-09-27T08:19:53.905Z,83.55
2022-09-27T08:22:22.960Z,83.39
2022-09-27T08:24:50.989Z,83.52
2022-09-27T08:27:19.089Z,83.09
2022-09-27T08:29:47.759Z,83.89
2022-09-27T08:32:18.311Z,82.40
2022-09-27T08:34:49.950Z,82.23
2022-09-27T08:37:17.620Z,82.48
2022-09-27T08:39:48.125Z,82.29
2022-09-27T08:42:20.844Z,82.71
2022-09-27T08:44:52.048Z,82.48
2022-09-27T08:47:25.120Z,82.71
2022-09-27T08:49:55.644Z,82.34
2022-09-27T08:52:27.693Z,82.52
2022-09-27T08:54:57.279Z,82.33
2022-09-27T08:57:25.483Z,81.85
2022-09-27T08:59:59.392Z,81.99
2022-09-27T09:02:27.357Z,82.63
2022-09-27T09:04:58.079Z,82.39
2022-09-27T09:07:37.363Z,81.87
2022-09-27T09:10:41.330Z,81.31
2022-09-27T09:13:12.669Z,80.80
2022-09-27T09:15:58.446Z,80.50
2022-09-27T09:18:34.887Z,80.79
2022-09-27T09:21:08.376Z,79.77
2022-09-27T09:24:02.410Z,81.13
2022-09-27T09:26:36.666Z,81.18
2022-09-27T09:29:14.076Z,80.91
2022-09-27T09:31:44.185Z,81.68
2022-09-27T09:34:16.558Z,79.64
2022-09-27T09:36:47.636Z,79.02
2022-09-27T09:39:19.126Z,79.00
2022-09-27T09:41:57.781Z,77.60
2022-09-27T09:44:28.610Z,78.94
2022-09-27T09:46:58.415Z,79.83
2022-09-27T09:49:29.433Z,79.22
2022-09-27T09:52:01.735Z,78.58
2022-09-27T09:54:34.007Z,79.22
2022-09-27T09:57:08.995Z,79.82
2022-09-27T09:59:42.988Z,80.26
2022-09-27T10:02:23.025Z,80.08
2022-09-27T10:04:50.823Z,80.21
2022-09-27T10:07:21.794Z,80.71
2022-09-27T10:09:49.492Z,81.27
2022-09-27T10:12:18.544Z,81.60
2022-09-27T10:14:48.126Z,81.48
2022-09-27T10:17:18.081Z,80.91
2022-09-27T10:19:46.182Z,80.58
2022-09-27T10:22:16.802Z,81.80
2022-09-27T10:24:56.342Z,81.66
2022-09-27T10:27:26.561Z,81.40
2022-09-27T10:29:58.823Z,81.97
2022-09-27T10:32:31.282Z,83.65
2022-09-27T10:35:23.600Z,83.07
2022-09-27T10:37:52.559Z,84.13
2022-09-27T10:40:28.971Z,84.80
2022-09-27T10:42:58.034Z,84.60
2022-09-27T10:45:31.038Z,85.24
2022-09-27T10:47:59.435Z,85.28
2022-09-27T10:53:18.777Z,84.82
2022-09-27T10:55:48.951Z,85.74
2022-09-27T10:58:21.037Z,82.59
2022-09-27T11:00:56.456Z,80.88
2022-09-27T11:03:25.486Z,80.62
2022-09-27T11:05:54.706Z,78.58
2022-09-27T11:08:27.439Z,78.37
2022-09-27T11:11:07.615Z,78.91
2022-09-27T11:13:36.701Z,79.51
2022-09-27T11:16:21.086Z,79.29
2022-09-27T11:18:55.139Z,79.50
2022-09-27T11:21:31.746Z,80.98
2022-09-27T11:24:09.405Z,80.37
2022-09-27T11:26:45.915Z,81.96
2022-09-27T11:29:25.651Z,78.46
2022-09-27T11:32:04.817Z,77.57
2022-09-27T11:34:44.596Z,77.48
2022-09-27T11:37:21.124Z,78.37
2022-09-27T11:39:58.211Z,78.65
2022-09-27T11:42:43.855Z,77.24
2022-09-27T11:45:41.208Z,76.74
2022-09-27T11:48:24.457Z,77.93
2022-09-27T11:50:58.755Z,78.01
2022-09-27T11:53:35.675Z,78.77
2022-09-27T11:56:08.386Z,79.79
2022-09-27T11:58:43.657Z,78.57
2022-09-27T12:01:23.933Z,77.97
2022-09-27T12:04:09.170Z,77.45
2022-09-27T12:06:44.467Z,77.24
2022-09-27T12:09:14.803Z,77.41
2022-09-27T12:11:46.023Z,78.60
2022-09-27T12:14:21.629Z,78.49
2022-09-27T12:16:55.185Z,78.40
2022-09-27T12:19:25.678Z,78.42
2022-09-27T12:21:53.327Z,79.23
2022-09-27T12:24:23.155Z,78.49
2022-09-27T12:26:53.009Z,78.48
2022-09-27T12:29:23.540Z,78.40
2022-09-27T12:31:58.736Z,78.82
2022-09-27T12:34:31.497Z,78.79
2022-09-27T12:37:04.581Z,78.71
2022-09-27T12:39:42.554Z,77.79
2022-09-27T12:42:16.119Z,76.11
2022-09-27T12:44:47.536Z,74.96
2022-09-27T12:47:33.321Z,74.32
2022-09-27T12:50:05.212Z,73.66
2022-09-27T12:52:35.402Z,73.62
2022-09-27T12:55:26.327Z,74.45
2022-09-27T12:58:08.641Z,74.73
2022-09-27T13:00:38.327Z,75.28
2022-09-27T13:03:39.187Z,75.25
2022-09-27T13:06:27.431Z,75.91
2022-09-27T13:09:17.708Z,75.18
2022-09-27T13:11:49.479Z,73.54
2022-09-27T13:14:19.686Z,74.13
2022-09-27T13:16:48.157Z,74.10
2022-09-27T13:19:40.300Z,74.01
2022-09-27T13:22:09.131Z,72.94
2022-09-27T13:24:48.242Z,73.40
2022-09-27T13:27:38.484Z,72.52
2022-09-27T13:30:48.703Z,73.02
2022-09-27T13:33:44.397Z,73.00
2022-09-27T13:36:30.380Z,73.22
2022-09-27T13:39:26.642Z,73.34
2022-09-27T13:42:09.118Z,74.19
2022-09-27T13:44:47.150Z,73.81
2022-09-27T13:47:26.394Z,73.96
2022-09-27T13:49:58.347Z,73.84
2022-09-27T13:52:33.811Z,72.50
2022-09-27T13:55:02.965Z,72.61
2022-09-27T13:57:44.171Z,72.75
2022-09-27T14:00:14.597Z,72.58
2022-09-27T14:02:51.311Z,71.43
2022-09-27T14:05:23.034Z,71.05
2022-09-27T14:07:53.301Z,71.74
2022-09-27T14:10:24.179Z,72.46
2022-09-27T14:12:53.539Z,72.70
2022-09-27T14:16:08.671Z,70.18
2022-09-27T14:18:37.662Z,70.78
2022-09-27T14:21:16.010Z,70.10
2022-09-27T14:23:43.755Z,70.16
2022-09-27T14:26:23.490Z,70.90
2022-09-27T14:28:51.143Z,69.82
2022-09-27T14:31:22.989Z,70.00
2022-09-27T14:33:52.277Z,70.14
2022-09-27T14:36:44.938Z,69.87
2022-09-27T14:39:17.121Z,70.48
2022-09-27T14:41:45.300Z,70.12
2022-09-27T14:44:17.779Z,70.58
2022-09-27T14:46:47.935Z,70.82
2022-09-27T14:49:25.894Z,69.54
2022-09-27T14:51:54.489Z,69.49
2022-09-27T14:54:25.276Z,69.35
2022-09-27T14:56:54.521Z,69.53
2022-09-27T14:59:30.667Z,68.74
2022-09-27T15:02:01.758Z,69.22
2022-09-27T15:04:32.016Z,69.55
2022-09-27T15:07:01.756Z,68.50
2022-09-27T15:09:32.967Z,68.26
2022-09-27T15:12:04.868Z,69.22
2022-09-27T15:14:33.766Z,68.81
2022-09-27T15:17:06.182Z,68.66
2022-09-27T15:19:34.440Z,69.14
2022-09-27T15:22:23.402Z,69.47
2022-09-27T15:24:52.078Z,69.70
2022-09-27T15:27:22.600Z,70.69
2022-09-27T15:29:51.454Z,70.20
2022-09-27T15:32:22.814Z,70.37
2022-09-27T15:34:50.924Z,70.01
2022-09-27T15:37:29.115Z,70.27
2022-09-27T15:39:57.150Z,69.76
2022-09-27T15:42:24.837Z,69.65
2022-09-27T15:44:54.119Z,69.81
2022-09-27T15:47:42.339Z,71.03
2022-09-27T15:50:38.064Z,70.51
2022-09-27T15:53:06.991Z,69.17
2022-09-27T15:55:37.706Z,69.51
2022-09-27T15:58:08.199Z,69.10
2022-09-27T16:00:36.914Z,68.46
2022-09-27T16:03:06.133Z,69.07
2022-09-27T16:05:33.857Z,69.16
2022-09-27T16:08:01.968Z,68.14
2022-09-27T16:10:33.092Z,68.09
2022-09-27T16:13:00.745Z,67.89
2022-09-27T16:15:28.379Z,67.44
2022-09-27T16:17:57.686Z,67.49
2022-09-27T16:20:28.045Z,67.37
2022-09-27T16:22:56.505Z,67.26
2022-09-27T16:25:24.391Z,67.36
2022-09-27T16:27:52.404Z,68.08
2022-09-27T16:30:21.081Z,68.82
2022-09-27T16:32:50.009Z,69.87
2022-09-27T16:35:19.606Z,68.30
2022-09-27T16:39:47.861Z,70.42
2022-09-27T16:42:15.996Z,71.25
2022-09-27T16:44:43.718Z,72.43
2022-09-27T16:47:11.399Z,72.68
2022-09-27T16:49:56.470Z,72.77
2022-09-27T16:52:24.117Z,73.25
2022-09-27T16:54:53.165Z,73.50
2022-09-27T16:57:20.874Z,74.28
2022-09-27T16:59:48.912Z,73.99
2022-09-27T17:02:18.006Z,74.40
2022-09-27T17:04:45.705Z,74.54
2022-09-27T17:07:13.488Z,74.52
2022-09-27T17:09:41.166Z,74.87
2022-09-27T17:12:12.036Z,75.02
2022-09-27T17:14:39.943Z,75.48
2022-09-27T17:17:08.296Z,75.11
2022-09-27T17:19:39.074Z,75.37
2022-09-27T17:22:08.517Z,75.60
2022-09-27T17:24:36.571Z,76.22
2022-09-27T17:27:04.327Z,75.96
2022-09-27T17:29:33.610Z,76.03
2022-09-27T17:32:01.604Z,76.34
2022-09-27T17:34:29.275Z,76.25
2022-09-27T17:36:57.138Z,76.40
2022-09-27T17:39:24.767Z,76.54
2022-09-27T17:41:52.545Z,76.74
2022-09-27T17:44:20.334Z,76.45
2022-09-27T17:47:09.710Z,76.46
2022-09-27T17:49:54.692Z,76.60
2022-09-27T17:52:23.452Z,76.51
2022-09-27T17:54:51.750Z,76.51
2022-09-27T17:57:19.429Z,76.83
2022-09-27T17:59:47.155Z,77.00
2022-09-27T18:02:16.410Z,77.21
2022-09-27T18:04:44.195Z,77.15
2022-09-27T18:07:13.063Z,77.35
2022-09-27T18:09:40.798Z,77.31
2022-09-27T18:12:08.565Z,77.37
2022-09-27T18:14:36.585Z,77.59
2022-09-27T18:17:04.324Z,77.63
2022-09-27T18:19:33.626Z,77.81
2022-09-27T18:22:01.890Z,78.08
2022-09-27T18:24:29.529Z,78.05
2022-09-27T18:26:59.866Z,78.48
2022-09-27T18:29:28.685Z,78.39
2022-09-27T18:31:56.405Z,78.16
2022-09-27T18:34:24.454Z,78.40
2022-09-27T18:36:53.561Z,78.31
2022-09-27T18:39:21.501Z,78.36
2022-09-27T18:41:49.577Z,78.35
2022-09-27T18:44:18.141Z,78.13
2022-09-27T18:46:46.450Z,78.42
2022-09-27T18:49:15.372Z,78.41
2022-09-27T18:51:46.054Z,78.30
2022-09-27T18:54:17.254Z,78.38
2022-09-27T18:56:45.307Z,78.30
2022-09-27T18:59:13.258Z,78.39
2022-09-27T19:01:44.832Z,78.45
2022-09-27T19:04:15.043Z,78.61
2022-09-27T19:06:42.835Z,78.57
2022-09-27T19:09:12.385Z,78.57
2022-09-27T19:11:41.501Z,78.74
2022-09-27T19:14:09.194Z,78.87
2022-09-27T19:16:36.884Z,78.98
2022-09-27T19:19:04.478Z,78.87
2022-09-27T19:21:32.119Z,78.81
2022-09-27T19:23:59.830Z,78.70
2022-09-27T19:26:28.281Z,78.91
2022-09-27T19:28:58.794Z,79.00
2022-09-27T19:31:29.314Z,79.04
2022-09-27T19:34:00.193Z,79.36
2022-09-27T19:36:29.122Z,79.28
2022-09-27T19:38:58.623Z,79.34
2022-09-27T19:41:26.893Z,79.40
2022-09-27T19:43:55.461Z,79.28
2022-09-27T19:46:25.999Z,79.68
2022-09-27T19:48:55.095Z,79.89
2022-09-27T19:51:23.877Z,79.79
2022-09-27T19:53:52.351Z,79.95
2022-09-27T19:56:20.629Z,80.03
2022-09-27T19:58:48.522Z,80.03
2022-09-27T20:01:19.225Z,79.95
2022-09-27T20:03:49.325Z,80.03
2022-09-27T20:06:18.867Z,80.09
2022-09-27T20:08:47.825Z,80.17
2022-09-27T20:11:17.445Z,80.46
2022-09-27T20:13:45.248Z,80.37
2022-09-27T20:16:14.411Z,80.34
2022-09-27T20:18:43.321Z,80.44
2022-09-27T20:21:12.861Z,80.51
2022-09-27T20:23:41.048Z,80.56
2022-09-27T20:26:10.186Z,80.95
2022-09-27T20:28:41.925Z,80.48
2022-09-27T20:31:09.845Z,80.79
2022-09-27T20:33:44.099Z,80.55
2022-09-27T20:36:14.542Z,80.76
2022-09-27T20:38:43.306Z,80.92
2022-09-27T20:41:11.585Z,80.98
2022-09-27T20:43:39.394Z,81.05
2022-09-27T20:46:08.816Z,81.14
2022-09-27T20:48:38.201Z,81.01
2022-09-27T20:51:06.540Z,81.08
2022-09-27T20:53:35.755Z,81.41
2022-09-27T20:56:03.752Z,81.29
2022-09-27T20:58:32.510Z,81.41
2022-09-27T21:01:07.489Z,81.04
2022-09-27T21:03:35.513Z,81.13
2022-09-27T21:06:04.569Z,81.21
2022-09-27T21:08:34.264Z,81.50
2022-09-27T21:11:08.546Z,81.54
2022-09-27T21:13:36.909Z,81.70
2022-09-27T21:16:05.817Z,81.48
2022-09-27T21:18:33.906Z,81.74
2022-09-27T21:21:02.901Z,81.52
2022-09-27T21:23:31.140Z,81.86
2022-09-27T21:26:03.271Z,81.80
2022-09-27T21:28:37.386Z,81.68
2022-09-27T21:31:07.035Z,81.80
2022-09-27T21:33:34.898Z,82.04
2022-09-27T21:36:03.274Z,81.68
2022-09-27T21:38:31.519Z,82.05
2022-09-27T21:41:00.182Z,82.02
2022-09-27T21:43:28.657Z,81.75
2022-09-27T21:46:03.821Z,81.54
2022-09-27T21:48:31.591Z,82.01
2022-09-27T21:51:07.251Z,82.06
2022-09-27T21:53:35.455Z,81.86
2022-09-27T21:56:03.789Z,82.13
2022-09-27T21:58:34.040Z,81.97
2022-09-27T22:01:09.452Z,82.06
2022-09-27T22:03:37.561Z,82.07
2022-09-27T22:06:06.481Z,82.03
2022-09-27T22:08:34.124Z,82.15
2022-09-27T22:11:01.852Z,82.20
2022-09-27T22:13:29.634Z,82.00
2022-09-27T22:15:57.524Z,82.30
2022-09-27T22:18:26.988Z,81.86
2022-09-27T22:20:54.654Z,82.12
2022-09-27T22:23:22.388Z,81.90
2022-09-27T22:25:50.052Z,82.14
2022-09-27T22:28:17.807Z,82.08
2022-09-27T22:30:45.493Z,82.16
2022-09-27T22:33:13.445Z,82.10
2022-09-27T22:35:47.799Z,82.32
2022-09-27T22:38:16.038Z,82.16
2022-09-27T22:40:43.823Z,82.34
2022-09-27T22:43:12.124Z,82.23
2022-09-27T22:45:40.232Z,82.49
2022-09-27T22:48:07.974Z,82.35
2022-09-27T22:50:36.177Z,82.16
2022-09-27T22:53:05.240Z,82.20
2022-09-27T22:55:32.853Z,82.51
2022-09-27T22:58:00.577Z,82.55
2022-09-27T23:00:28.355Z,82.52
2022-09-27T23:02:56.452Z,82.14
2022-09-27T23:05:24.765Z,82.38
2022-09-27T23:07:53.142Z,82.19
2022-09-27T23:10:23.385Z,82.36
2022-09-27T23:12:54.567Z,82.17
2022-09-27T23:15:22.503Z,82.42
2022-09-27T23:17:50.996Z,82.47
2022-09-27T23:20:18.767Z,82.43
2022-09-27T23:22:46.557Z,82.27
2022-09-27T23:25:14.483Z,82.53
2022-09-27T23:27:45.179Z,82.64
2022-09-27T23:30:14.077Z,82.49
2022-09-27T23:32:44.692Z,82.64
2022-09-27T23:35:12.533Z,82.63
2022-09-27T23:37:40.344Z,82.21
2022-09-27T23:40:09.558Z,82.57
2022-09-27T23:42:37.629Z,82.87
2022-09-27T23:45:07.671Z,82.64
2022-09-27T23:47:35.370Z,82.86
2022-09-27T23:50:03.098Z,82.80
2022-09-27T23:52:30.751Z,82.70
2022-09-27T23:54:58.462Z,82.78
2022-09-27T23:57:26.129Z,82.92
2022-09-27T23:59:53.870Z,82.79
